www.winti-wetter.ch
Wetterdaten: aktuell Mittwoch, 18.05.2022 01:20
Datum Zeit Temp. A. Feuchte A. Luftdruck Regen Wind Richtung Richtung Sonnenschein T Zeit Regen Solar Windben
18.05.2022 01:20 14.2 C 85 % 1019.7 hPa 0.0 l/m 0.0 km/h O-SO 107 0 min 0 min 0 W/m 0.0 km/h
18.05.2022 01:15 14.3 C 85 % 1019.7 hPa 0.0 l/m 0.0 km/h O-SO 107 0 min 0 min 0 W/m 1.6 km/h
18.05.2022 01:10 14.3 C 84 % 1019.6 hPa 0.0 l/m 0.0 km/h O-SO 107 0 min 0 min 0 W/m 0.0 km/h
18.05.2022 01:05 14.4 C 84 % 1019.7 hPa 0.0 l/m 0.0 km/h O-SO 107 0 min 0 min 0 W/m 0.0 km/h
18.05.2022 01:00 14.6 C 84 % 1019.7 hPa 0.0 l/m 0.0 km/h O-SO 107 0 min 0 min 0 W/m 0.0 km/h
18.05.2022 00:55 14.7 C 84 % 1019.7 hPa 0.0 l/m 0.0 km/h O-SO 107 0 min 0 min 0 W/m 0.0 km/h
18.05.2022 00:50 14.7 C 83 % 1019.6 hPa 0.0 l/m 0.1 km/h O-SO 107 0 min 0 min 0 W/m 1.6 km/h
18.05.2022 00:45 14.8 C 83 % 1019.7 hPa 0.0 l/m 0.0 km/h O-SO 107 0 min 0 min 0 W/m 0.0 km/h
18.05.2022 00:40 14.9 C 82 % 1019.6 hPa 0.0 l/m 0.0 km/h O-SO 107 0 min 0 min 0 W/m 0.0 km/h
18.05.2022 00:35 14.9 C 83 % 1019.6 hPa 0.0 l/m 0.6 km/h O-SO 107 0 min 0 min 0 W/m 1.6 km/h
18.05.2022 00:30 15.1 C 82 % 1019.6 hPa 0.0 l/m 0.0 km/h O-SO 107 0 min 0 min 0 W/m 0.0 km/h
18.05.2022 00:25 15.2 C 82 % 1019.6 hPa 0.0 l/m 0.0 km/h O-SO 107 0 min 0 min 0 W/m 0.0 km/h
18.05.2022 00:20 15.2 C 82 % 1019.6 hPa 0.0 l/m 0.0 km/h O-SO 107 0 min 0 min 0 W/m 0.0 km/h
18.05.2022 00:15 15.3 C 81 % 1019.5 hPa 0.0 l/m 0.0 km/h O-SO 107 0 min 0 min 0 W/m 0.0 km/h
18.05.2022 00:10 15.4 C 81 % 1019.4 hPa 0.0 l/m 0.0 km/h O-SO 107 0 min 0 min 0 W/m 0.0 km/h
18.05.2022 00:05 15.6 C 81 % 1019.4 hPa 0.0 l/m 0.5 km/h O-SO 107 0 min 0 min 0 W/m 1.6 km/h
18.05.2022 00:00 15.6 C 80 % 1019.4 hPa 0.0 l/m 0.4 km/h O-SO 107 0 min 0 min 0 W/m 1.6 km/h
17.05.2022 23:55 15.7 C 80 % 1019.4 hPa 0.0 l/m 0.0 km/h O-SO 107 0 min 0 min 0 W/m 0.0 km/h
17.05.2022 23:50 15.8 C 80 % 1019.3 hPa 0.0 l/m 0.0 km/h O-SO 107 0 min 0 min 0 W/m 0.0 km/h
17.05.2022 23:45 15.8 C 79 % 1019.2 hPa 0.0 l/m 0.0 km/h O-SO 107 0 min 0 min 0 W/m 0.0 km/h
17.05.2022 23:40 16.0 C 79 % 1019.3 hPa 0.0 l/m 0.1 km/h O-SO 107 0 min 0 min 0 W/m 1.6 km/h
17.05.2022 23:35 16.2 C 78 % 1019.3 hPa 0.0 l/m 0.3 km/h O-SO 107 0 min 0 min 0 W/m 1.6 km/h
17.05.2022 23:30 16.3 C 78 % 1019.3 hPa 0.0 l/m 0.6 km/h O-SO 107 0 min 0 min 0 W/m 3.2 km/h
17.05.2022 23:25 16.3 C 77 % 1019.3 hPa 0.0 l/m 0.0 km/h O-SO 107 0 min 0 min 0 W/m 0.0 km/h
17.05.2022 23:20 16.5 C 77 % 1019.2 hPa 0.0 l/m 0.2 km/h O-SO 107 0 min 0 min 0 W/m 1.6 km/h
17.05.2022 23:15 16.6 C 76 % 1019.2 hPa 0.0 l/m 0.5 km/h O-SO 107 0 min 0 min 0 W/m 1.6 km/h
17.05.2022 23:10 16.7 C 76 % 1019.2 hPa 0.0 l/m 0.0 km/h O-SO 107 0 min 0 min 0 W/m 0.0 km/h
17.05.2022 23:05 17.0 C 75 % 1019.2 hPa 0.0 l/m 0.0 km/h O-SO 107 0 min 0 min 0 W/m 0.0 km/h
17.05.2022 23:00 17.1 C 74 % 1019.2 hPa 0.0 l/m 0.8 km/h O-SO 107 0 min 0 min 0 W/m 3.2 km/h
17.05.2022 22:55 17.3 C 73 % 1019.1 hPa 0.0 l/m 1.8 km/h O-SO 107 0 min 0 min 0 W/m 4.8 km/h
17.05.2022 22:50 17.4 C 73 % 1019.1 hPa 0.0 l/m 1.0 km/h O-SO 107 0 min 0 min 0 W/m 3.2 km/h
17.05.2022 22:45 17.7 C 71 % 1019.1 hPa 0.0 l/m 1.3 km/h O-SO 107 0 min 0 min 0 W/m 3.2 km/h
17.05.2022 22:40 17.8 C 72 % 1019.2 hPa 0.0 l/m 1.2 km/h O-SO 107 0 min 0 min 0 W/m 3.2 km/h
17.05.2022 22:35 17.8 C 71 % 1019.2 hPa 0.0 l/m 0.4 km/h O-SO 107 0 min 0 min 0 W/m 3.2 km/h
17.05.2022 22:30 18.0 C 70 % 1019.1 hPa 0.0 l/m 0.5 km/h O-SO 107 0 min 0 min 0 W/m 1.6 km/h
17.05.2022 22:25 18.2 C 69 % 1019.1 hPa 0.0 l/m 2.9 km/h O-SO 107 0 min 0 min 0 W/m 6.4 km/h
17.05.2022 22:20 18.2 C 69 % 1019.1 hPa 0.0 l/m 1.4 km/h O-SO 107 0 min 0 min 0 W/m 3.2 km/h
17.05.2022 22:15 18.4 C 69 % 1019.0 hPa 0.0 l/m 0.3 km/h O-SO 107 0 min 0 min 0 W/m 1.6 km/h
17.05.2022 22:10 18.3 C 69 % 1019.0 hPa 0.0 l/m 2.8 km/h O-SO 107 0 min 0 min 0 W/m 4.8 km/h
17.05.2022 22:05 18.2 C 72 % 1019.0 hPa 0.0 l/m 0.8 km/h O-SO 107 0 min 0 min 0 W/m 4.8 km/h
17.05.2022 22:00 18.3 C 71 % 1018.9 hPa 0.0 l/m 0.0 km/h O-SO 107 0 min 0 min 0 W/m 0.0 km/h
17.05.2022 21:55 18.6 C 70 % 1018.8 hPa 0.0 l/m 0.0 km/h O-SO 107 0 min 0 min 0 W/m 0.0 km/h
17.05.2022 21:50 18.8 C 68 % 1018.8 hPa 0.0 l/m 0.0 km/h O-SO 107 0 min 0 min 0 W/m 0.0 km/h
17.05.2022 21:45 19.1 C 67 % 1018.7 hPa 0.0 l/m 0.7 km/h O-SO 107 0 min 0 min 0 W/m 3.2 km/h
17.05.2022 21:40 19.3 C 66 % 1018.7 hPa 0.0 l/m 0.5 km/h O-SO 107 0 min 0 min 0 W/m 3.2 km/h
17.05.2022 21:35 19.6 C 66 % 1018.6 hPa 0.0 l/m 2.3 km/h O-SO 107 0 min 0 min 0 W/m 3.2 km/h
17.05.2022 21:30 19.5 C 66 % 1018.6 hPa 0.0 l/m 3.0 km/h O-SO 107 0 min 0 min 0 W/m 6.4 km/h
17.05.2022 21:25 19.7 C 66 % 1018.6 hPa 0.0 l/m 2.9 km/h O-NO 70 0 min 0 min 0 W/m 4.8 km/h
17.05.2022 21:20 19.9 C 64 % 1018.4 hPa 0.0 l/m 1.3 km/h NO 34 0 min 0 min 0 W/m 3.2 km/h
17.05.2022 21:15 20.1 C 63 % 1018.4 hPa 0.0 l/m 1.5 km/h NO 34 0 min 0 min 0 W/m 3.2 km/h
17.05.2022 21:10 20.4 C 61 % 1018.4 hPa 0.0 l/m 1.2 km/h NO 34 0 min 0 min 3 W/m 3.2 km/h
17.05.2022 21:05 20.7 C 60 % 1018.3 hPa 0.0 l/m 1.2 km/h NO 34 0 min 0 min 6 W/m 3.2 km/h
17.05.2022 21:00 21.1 C 58 % 1018.3 hPa 0.0 l/m 1.4 km/h NO 34 0 min 0 min 8 W/m 3.2 km/h
17.05.2022 20:55 21.4 C 56 % 1018.2 hPa 0.0 l/m 1.5 km/h NO 34 0 min 0 min 10 W/m 4.8 km/h
17.05.2022 20:50 21.4 C 56 % 1018.3 hPa 0.0 l/m 1.2 km/h N-NO 25 0 min 0 min 13 W/m 4.8 km/h
17.05.2022 20:45 21.6 C 56 % 1018.2 hPa 0.0 l/m 0.7 km/h N-NO 17 0 min 0 min 15 W/m 3.2 km/h
17.05.2022 20:40 21.7 C 55 % 1018.2 hPa 0.0 l/m 1.5 km/h N-NO 17 0 min 0 min 18 W/m 4.8 km/h
17.05.2022 20:35 22.1 C 54 % 1018.1 hPa 0.0 l/m 2.5 km/h N-NO 17 0 min 0 min 21 W/m 4.8 km/h
17.05.2022 20:30 22.1 C 54 % 1018.1 hPa 0.0 l/m 4.4 km/h O-NO 63 0 min 0 min 24 W/m 8.0 km/h
17.05.2022 20:25 22.2 C 53 % 1018.1 hPa 0.0 l/m 3.6 km/h N 9 0 min 0 min 30 W/m 8.0 km/h
17.05.2022 20:20 22.4 C 53 % 1018.0 hPa 0.0 l/m 4.1 km/h N 5 0 min 0 min 41 W/m 8.0 km/h
17.05.2022 20:15 22.5 C 52 % 1018.0 hPa 0.0 l/m 5.0 km/h N-NO 27 0 min 0 min 51 W/m 9.7 km/h
17.05.2022 20:10 22.7 C 52 % 1017.9 hPa 0.0 l/m 4.9 km/h N 5 5 min 0 min 62 W/m 9.7 km/h
17.05.2022 20:05 22.9 C 51 % 1017.9 hPa 0.0 l/m 5.0 km/h N 9 0 min 0 min 66 W/m 11.3 km/h
17.05.2022 20:00 23.1 C 51 % 1017.9 hPa 0.0 l/m 5.5 km/h N 10 5 min 0 min 88 W/m 12.9 km/h
17.05.2022 19:55 23.2 C 49 % 1017.9 hPa 0.0 l/m 3.3 km/h N-NO 26 5 min 0 min 101 W/m 8.0 km/h
17.05.2022 19:50 23.3 C 49 % 1017.9 hPa 0.0 l/m 3.2 km/h NO 39 5 min 0 min 104 W/m 8.0 km/h
17.05.2022 19:45 23.4 C 47 % 1017.9 hPa 0.0 l/m 5.3 km/h N-NO 28 5 min 0 min 115 W/m 11.3 km/h
17.05.2022 19:40 23.5 C 47 % 1017.9 hPa 0.0 l/m 6.0 km/h O-SO 104 5 min 0 min 140 W/m 12.9 km/h
17.05.2022 19:35 23.6 C 49 % 1017.9 hPa 0.0 l/m 4.0 km/h O 83 5 min 0 min 156 W/m 8.0 km/h
17.05.2022 19:30 23.6 C 48 % 1017.8 hPa 0.0 l/m 4.0 km/h O 82 5 min 0 min 155 W/m 8.0 km/h
17.05.2022 19:25 23.6 C 48 % 1017.8 hPa 0.0 l/m 7.1 km/h O-NO 57 5 min 0 min 165 W/m 12.9 km/h
17.05.2022 19:20 23.7 C 48 % 1017.8 hPa 0.0 l/m 6.0 km/h N 5 5 min 0 min 179 W/m 12.9 km/h
17.05.2022 19:15 23.8 C 49 % 1017.9 hPa 0.0 l/m 4.3 km/h N-NO 31 5 min 0 min 185 W/m 9.7 km/h
17.05.2022 19:10 23.8 C 48 % 1017.9 hPa 0.0 l/m 6.8 km/h O 79 5 min 0 min 202 W/m 12.9 km/h
17.05.2022 19:05 23.9 C 48 % 1017.8 hPa 0.0 l/m 5.7 km/h O 88 5 min 0 min 226 W/m 12.9 km/h
17.05.2022 19:00 24.1 C 47 % 1017.7 hPa 0.0 l/m 5.2 km/h O 88 5 min 0 min 240 W/m 14.5 km/h
17.05.2022 18:55 24.2 C 47 % 1017.8 hPa 0.0 l/m 7.4 km/h O-NO 70 5 min 0 min 259 W/m 14.5 km/h
17.05.2022 18:50 24.3 C 47 % 1017.8 hPa 0.0 l/m 7.1 km/h N 9 5 min 0 min 266 W/m 14.5 km/h
17.05.2022 18:45 24.4 C 47 % 1017.8 hPa 0.0 l/m 6.2 km/h N-NO 17 5 min 0 min 303 W/m 12.9 km/h
17.05.2022 18:40 24.4 C 47 % 1017.8 hPa 0.0 l/m 6.2 km/h NO 35 5 min 0 min 315 W/m 14.5 km/h
17.05.2022 18:35 24.4 C 48 % 1017.8 hPa 0.0 l/m 7.2 km/h NO 49 5 min 0 min 337 W/m 16.1 km/h
17.05.2022 18:30 24.5 C 47 % 1017.8 hPa 0.0 l/m 5.7 km/h NO 55 5 min 0 min 350 W/m 12.9 km/h
17.05.2022 18:25 24.6 C 47 % 1017.8 hPa 0.0 l/m 3.5 km/h N-NO 17 5 min 0 min 357 W/m 8.0 km/h
17.05.2022 18:20 24.5 C 47 % 1017.7 hPa 0.0 l/m 7.1 km/h O 84 5 min 0 min 351 W/m 12.9 km/h
17.05.2022 18:15 24.3 C 47 % 1017.8 hPa 0.0 l/m 4.9 km/h N-NO 31 5 min 0 min 362 W/m 11.3 km/h
17.05.2022 18:10 24.4 C 46 % 1017.8 hPa 0.0 l/m 6.9 km/h O 89 5 min 0 min 384 W/m 14.5 km/h
17.05.2022 18:05 24.5 C 49 % 1017.8 hPa 0.0 l/m 8.0 km/h N-NO 30 5 min 0 min 391 W/m 16.1 km/h
17.05.2022 18:00 24.6 C 45 % 1017.8 hPa 0.0 l/m 6.3 km/h NO 53 5 min 0 min 403 W/m 16.1 km/h
17.05.2022 17:55 24.4 C 46 % 1017.7 hPa 0.0 l/m 6.3 km/h N-NO 30 5 min 0 min 408 W/m 14.5 km/h
17.05.2022 17:50 24.7 C 45 % 1017.7 hPa 0.0 l/m 7.2 km/h NO 51 5 min 0 min 398 W/m 16.1 km/h
17.05.2022 17:45 24.9 C 45 % 1017.7 hPa 0.0 l/m 7.7 km/h NO 53 5 min 0 min 456 W/m 16.1 km/h
17.05.2022 17:40 24.8 C 47 % 1017.8 hPa 0.0 l/m 7.3 km/h NO 51 5 min 0 min 436 W/m 17.7 km/h
17.05.2022 17:35 24.9 C 45 % 1017.8 hPa 0.0 l/m 6.2 km/h O-NO 59 5 min 0 min 425 W/m 14.5 km/h
17.05.2022 17:30 25.0 C 46 % 1017.7 hPa 0.0 l/m 8.6 km/h O 101 5 min 0 min 481 W/m 16.1 km/h
17.05.2022 17:25 25.4 C 46 % 1017.8 hPa 0.0 l/m 8.7 km/h O-SO 115 5 min 0 min 538 W/m 14.5 km/h
17.05.2022 17:20 25.4 C 45 % 1017.8 hPa 0.0 l/m 7.9 km/h NO 51 5 min 0 min 562 W/m 14.5 km/h
17.05.2022 17:15 25.3 C 45 % 1017.8 hPa 0.0 l/m 11.4 km/h N-NW 343 5 min 0 min 587 W/m 19.3 km/h
17.05.2022 17:10 25.2 C 45 % 1017.8 hPa 0.0 l/m 10.1 km/h N-NW 340 5 min 0 min 529 W/m 20.9 km/h
17.05.2022 17:05 25.8 C 44 % 1017.8 hPa 0.0 l/m 8.2 km/h NO 40 5 min 0 min 643 W/m 16.1 km/h
17.05.2022 17:00 25.6 C 47 % 1017.9 hPa 0.0 l/m 8.4 km/h NO 43 5 min 0 min 667 W/m 17.7 km/h
17.05.2022 16:55 25.6 C 45 % 1018.0 hPa 0.0 l/m 5.3 km/h N 350 5 min 0 min 640 W/m 12.9 km/h
17.05.2022 16:50 25.3 C 45 % 1018.0 hPa 0.0 l/m 4.3 km/h O-NO 60 5 min 0 min 637 W/m 8.0 km/h
17.05.2022 16:45 25.2 C 44 % 1018.2 hPa 0.0 l/m 6.7 km/h NO 53 5 min 0 min 703 W/m 12.9 km/h
17.05.2022 16:40 25.4 C 45 % 1018.1 hPa 0.0 l/m 7.9 km/h N-NO 13 5 min 0 min 748 W/m 17.7 km/h
17.05.2022 16:35 25.2 C 46 % 1018.1 hPa 0.0 l/m 6.1 km/h NO 43 5 min 0 min 473 W/m 14.5 km/h
17.05.2022 16:30 24.7 C 47 % 1018.2 hPa 0.0 l/m 4.9 km/h N 355 0 min 0 min 341 W/m 16.1 km/h
17.05.2022 16:25 24.7 C 46 % 1018.2 hPa 0.0 l/m 8.9 km/h NO 51 0 min 0 min 320 W/m 17.7 km/h
17.05.2022 16:20 25.5 C 46 % 1018.2 hPa 0.0 l/m 8.0 km/h O 91 5 min 0 min 696 W/m 16.1 km/h
17.05.2022 16:15 25.2 C 46 % 1018.2 hPa 0.0 l/m 7.5 km/h N-NO 23 5 min 0 min 704 W/m 17.7 km/h
17.05.2022 16:10 25.1 C 45 % 1018.3 hPa 0.0 l/m 6.3 km/h N-NO 13 5 min 0 min 617 W/m 16.1 km/h
17.05.2022 16:05 25.6 C 46 % 1018.4 hPa 0.0 l/m 6.7 km/h N-NW 329 5 min 0 min 716 W/m 14.5 km/h
17.05.2022 16:00 25.4 C 45 % 1018.4 hPa 0.0 l/m 10.1 km/h NO 35 5 min 0 min 685 W/m 19.3 km/h
17.05.2022 15:55 25.1 C 47 % 1018.4 hPa 0.0 l/m 8.5 km/h N 5 5 min 0 min 687 W/m 22.5 km/h
17.05.2022 15:50 25.2 C 46 % 1018.5 hPa 0.0 l/m 7.3 km/h O-NO 77 5 min 0 min 738 W/m 14.5 km/h
17.05.2022 15:45 25.3 C 46 % 1018.6 hPa 0.0 l/m 8.6 km/h N-NO 17 5 min 0 min 756 W/m 17.7 km/h
17.05.2022 15:40 25.3 C 47 % 1018.6 hPa 0.0 l/m 4.7 km/h N 5 5 min 0 min 760 W/m 14.5 km/h
17.05.2022 15:35 25.5 C 44 % 1018.5 hPa 0.0 l/m 11.4 km/h N-NW 347 5 min 0 min 761 W/m 22.5 km/h
17.05.2022 15:30 25.3 C 46 % 1018.6 hPa 0.0 l/m 8.1 km/h NO 44 5 min 0 min 765 W/m 14.5 km/h
17.05.2022 15:25 25.2 C 45 % 1018.6 hPa 0.0 l/m 6.2 km/h NW 324 5 min 0 min 770 W/m 14.5 km/h
17.05.2022 15:20 25.1 C 45 % 1018.7 hPa 0.0 l/m 8.7 km/h N-NO 28 5 min 0 min 775 W/m 17.7 km/h
17.05.2022 15:15 24.9 C 48 % 1018.7 hPa 0.0 l/m 9.0 km/h N-NO 32 5 min 0 min 764 W/m 17.7 km/h
17.05.2022 15:10 25.3 C 44 % 1018.8 hPa 0.0 l/m 5.6 km/h O-NO 74 5 min 0 min 765 W/m 12.9 km/h
17.05.2022 15:05 25.4 C 47 % 1018.8 hPa 0.0 l/m 7.1 km/h NO 54 5 min 0 min 789 W/m 16.1 km/h
17.05.2022 15:00 24.9 C 49 % 1018.8 hPa 0.0 l/m 7.6 km/h N-NW 333 5 min 0 min 820 W/m 14.5 km/h
17.05.2022 14:55 25.2 C 45 % 1018.9 hPa 0.0 l/m 7.9 km/h O-NO 71 5 min 0 min 806 W/m 17.7 km/h
17.05.2022 14:50 24.9 C 46 % 1018.9 hPa 0.0 l/m 8.1 km/h N 350 5 min 0 min 821 W/m 16.1 km/h
17.05.2022 14:45 24.8 C 47 % 1019.0 hPa 0.0 l/m 10.3 km/h N-NO 15 5 min 0 min 852 W/m 20.9 km/h
17.05.2022 14:40 24.8 C 49 % 1019.0 hPa 0.0 l/m 8.3 km/h O 86 5 min 0 min 842 W/m 16.1 km/h
17.05.2022 14:35 24.7 C 49 % 1019.1 hPa 0.0 l/m 8.7 km/h N 350 5 min 0 min 826 W/m 17.7 km/h
17.05.2022 14:30 24.9 C 48 % 1019.1 hPa 0.0 l/m 6.5 km/h N 355 5 min 0 min 835 W/m 12.9 km/h
17.05.2022 14:25 24.8 C 48 % 1019.1 hPa 0.0 l/m 9.5 km/h N-NO 23 5 min 0 min 835 W/m 17.7 km/h
17.05.2022 14:20 24.8 C 51 % 1019.2 hPa 0.0 l/m 7.4 km/h N-NW 342 5 min 0 min 830 W/m 16.1 km/h
17.05.2022 14:15 24.7 C 50 % 1019.2 hPa 0.0 l/m 7.8 km/h N 360 5 min 0 min 862 W/m 16.1 km/h
17.05.2022 14:10 24.7 C 51 % 1019.2 hPa 0.0 l/m 7.3 km/h N 5 5 min 0 min 875 W/m 14.5 km/h
17.05.2022 14:05 24.2 C 50 % 1019.3 hPa 0.0 l/m 7.6 km/h N-NO 32 5 min 0 min 830 W/m 17.7 km/h
17.05.2022 14:00 24.2 C 50 % 1019.3 hPa 0.0 l/m 7.2 km/h NO 53 5 min 0 min 793 W/m 12.9 km/h
17.05.2022 13:55 24.2 C 49 % 1019.3 hPa 0.0 l/m 9.0 km/h O-NO 61 5 min 0 min 852 W/m 19.3 km/h
17.05.2022 13:50 24.3 C 49 % 1019.3 hPa 0.0 l/m 7.4 km/h O 82 5 min 0 min 844 W/m 14.5 km/h
17.05.2022 13:45 24.5 C 51 % 1019.4 hPa 0.0 l/m 9.1 km/h N-NW 345 5 min 0 min 882 W/m 17.7 km/h
17.05.2022 13:40 24.6 C 54 % 1019.5 hPa 0.0 l/m 6.5 km/h NO 38 5 min 0 min 850 W/m 11.3 km/h
17.05.2022 13:35 24.3 C 52 % 1019.6 hPa 0.0 l/m 7.6 km/h N-NW 334 5 min 0 min 824 W/m 17.7 km/h
17.05.2022 13:30 24.1 C 53 % 1019.6 hPa 0.0 l/m 7.8 km/h O-NO 63 5 min 0 min 822 W/m 16.1 km/h
17.05.2022 13:25 24.4 C 53 % 1019.7 hPa 0.0 l/m 8.4 km/h N-NW 335 5 min 0 min 885 W/m 16.1 km/h
17.05.2022 13:20 23.8 C 52 % 1019.7 hPa 0.0 l/m 13.0 km/h N 11 5 min 0 min 868 W/m 24.1 km/h
17.05.2022 13:15 23.7 C 51 % 1019.7 hPa 0.0 l/m 6.8 km/h O 81 5 min 0 min 849 W/m 12.9 km/h
17.05.2022 13:10 23.9 C 52 % 1019.8 hPa 0.0 l/m 7.1 km/h NO 53 5 min 0 min 842 W/m 14.5 km/h
17.05.2022 13:05 24.0 C 51 % 1019.8 hPa 0.0 l/m 6.9 km/h N-NO 19 5 min 0 min 806 W/m 14.5 km/h
17.05.2022 13:00 24.1 C 52 % 1019.9 hPa 0.0 l/m 10.6 km/h NO 45 5 min 0 min 868 W/m 20.9 km/h
17.05.2022 12:55 23.8 C 51 % 1020.0 hPa 0.0 l/m 10.3 km/h N 349 5 min 0 min 855 W/m 19.3 km/h
17.05.2022 12:50 23.6 C 54 % 1020.0 hPa 0.0 l/m 9.6 km/h N 5 5 min 0 min 816 W/m 19.3 km/h
17.05.2022 12:45 23.9 C 54 % 1020.0 hPa 0.0 l/m 8.9 km/h N-NO 25 5 min 0 min 817 W/m 19.3 km/h
17.05.2022 12:40 23.7 C 52 % 1020.0 hPa 0.0 l/m 7.9 km/h N 350 5 min 0 min 808 W/m 20.9 km/h
17.05.2022 12:35 23.8 C 53 % 1020.1 hPa 0.0 l/m 7.8 km/h N-NW 344 5 min 0 min 847 W/m 14.5 km/h
17.05.2022 12:30 23.1 C 56 % 1020.0 hPa 0.0 l/m 8.2 km/h NO 47 5 min 0 min 815 W/m 19.3 km/h
17.05.2022 12:25 23.2 C 54 % 1020.1 hPa 0.0 l/m 9.5 km/h NO 49 5 min 0 min 823 W/m 16.1 km/h
17.05.2022 12:20 23.3 C 55 % 1020.1 hPa 0.0 l/m 9.2 km/h N-NO 24 5 min 0 min 785 W/m 16.1 km/h
17.05.2022 12:15 23.3 C 53 % 1020.2 hPa 0.0 l/m 9.1 km/h N-NW 344 5 min 0 min 809 W/m 19.3 km/h
17.05.2022 12:10 22.9 C 55 % 1020.3 hPa 0.0 l/m 7.7 km/h N-NO 31 5 min 0 min 821 W/m 16.1 km/h
17.05.2022 12:05 23.0 C 56 % 1020.4 hPa 0.0 l/m 8.3 km/h NO 51 5 min 0 min 833 W/m 16.1 km/h
17.05.2022 12:00 23.2 C 57 % 1020.3 hPa 0.0 l/m 10.3 km/h N-NO 26 5 min 0 min 808 W/m 17.7 km/h
17.05.2022 11:55 23.4 C 58 % 1020.4 hPa 0.0 l/m 7.4 km/h N 5 5 min 0 min 806 W/m 16.1 km/h
17.05.2022 11:50 23.1 C 58 % 1020.4 hPa 0.0 l/m 7.1 km/h N 360 5 min 0 min 774 W/m 14.5 km/h
17.05.2022 11:45 22.8 C 60 % 1020.4 hPa 0.0 l/m 7.2 km/h N-NO 22 5 min 0 min 807 W/m 14.5 km/h
17.05.2022 11:40 22.6 C 60 % 1020.5 hPa 0.0 l/m 9.2 km/h N 10 5 min 0 min 795 W/m 17.7 km/h
17.05.2022 11:35 22.8 C 63 % 1020.5 hPa 0.0 l/m 5.4 km/h N-NO 27 5 min 0 min 797 W/m 17.7 km/h
17.05.2022 11:30 22.3 C 61 % 1020.6 hPa 0.0 l/m 7.7 km/h N-NO 22 5 min 0 min 789 W/m 16.1 km/h
17.05.2022 11:25 22.5 C 59 % 1020.6 hPa 0.0 l/m 8.7 km/h N 355 5 min 0 min 773 W/m 16.1 km/h
17.05.2022 11:20 22.4 C 62 % 1020.6 hPa 0.0 l/m 10.1 km/h N 360 5 min 0 min 779 W/m 17.7 km/h
17.05.2022 11:15 22.1 C 63 % 1020.6 hPa 0.0 l/m 7.3 km/h NO 42 5 min 0 min 740 W/m 19.3 km/h
17.05.2022 11:10 22.2 C 62 % 1020.7 hPa 0.0 l/m 7.9 km/h O-NO 59 5 min 0 min 743 W/m 16.1 km/h
17.05.2022 11:05 22.3 C 64 % 1020.7 hPa 0.0 l/m 8.6 km/h NW 324 5 min 0 min 746 W/m 17.7 km/h
17.05.2022 11:00 22.1 C 64 % 1020.6 hPa 0.0 l/m 7.3 km/h N 355 5 min 0 min 727 W/m 16.1 km/h
17.05.2022 10:55 21.7 C 67 % 1020.6 hPa 0.0 l/m 6.9 km/h N-NW 331 5 min 0 min 731 W/m 14.5 km/h
17.05.2022 10:50 21.6 C 69 % 1020.7 hPa 0.0 l/m 6.3 km/h NO 36 5 min 0 min 718 W/m 16.1 km/h
17.05.2022 10:45 21.8 C 67 % 1020.7 hPa 0.0 l/m 8.3 km/h N-NO 29 5 min 0 min 720 W/m 19.3 km/h
17.05.2022 10:40 21.7 C 69 % 1020.7 hPa 0.0 l/m 4.4 km/h O 88 5 min 0 min 714 W/m 14.5 km/h
17.05.2022 10:35 21.3 C 69 % 1020.7 hPa 0.0 l/m 7.0 km/h N-NW 339 5 min 0 min 705 W/m 17.7 km/h
17.05.2022 10:30 21.2 C 69 % 1020.7 hPa 0.0 l/m 5.8 km/h N-NO 24 5 min 0 min 700 W/m 14.5 km/h
17.05.2022 10:25 20.7 C 72 % 1020.8 hPa 0.0 l/m 3.9 km/h N 5 4 min 0 min 691 W/m 9.7 km/h
17.05.2022 10:21 20.4 C 71 % 1020.8 hPa 0.0 l/m 7.2 km/h O-NO 67 6 min 0 min 520 W/m 17.7 km/h
17.05.2022 10:15 20.5 C 75 % 1020.8 hPa 0.0 l/m 5.9 km/h N-NO 19 5 min 0 min 546 W/m 12.9 km/h
17.05.2022 10:10 20.2 C 74 % 1020.9 hPa 0.0 l/m 4.5 km/h O 84 5 min 0 min 636 W/m 11.3 km/h
17.05.2022 10:05 20.1 C 77 % 1020.9 hPa 0.0 l/m 6.9 km/h N 11 5 min 0 min 684 W/m 16.1 km/h
17.05.2022 10:00 19.9 C 78 % 1020.9 hPa 0.0 l/m 4.0 km/h NO 49 5 min 0 min 560 W/m 11.3 km/h
17.05.2022 09:55 19.5 C 78 % 1020.9 hPa 0.0 l/m 8.0 km/h O-NO 63 5 min 0 min 573 W/m 12.9 km/h
17.05.2022 09:50 19.6 C 81 % 1020.9 hPa 0.0 l/m 7.6 km/h N-NO 17 5 min 0 min 547 W/m 14.5 km/h
17.05.2022 09:45 19.2 C 80 % 1021.0 hPa 0.0 l/m 8.0 km/h N 5 5 min 0 min 741 W/m 14.5 km/h
17.05.2022 09:40 19.2 C 80 % 1021.0 hPa 0.0 l/m 6.1 km/h N-NW 338 5 min 0 min 510 W/m 14.5 km/h
17.05.2022 09:35 18.9 C 80 % 1021.0 hPa 0.0 l/m 5.7 km/h N-NO 32 5 min 0 min 501 W/m 9.7 km/h
17.05.2022 09:30 18.9 C 80 % 1021.0 hPa 0.0 l/m 6.5 km/h N 360 5 min 0 min 437 W/m 14.5 km/h
17.05.2022 09:25 18.5 C 81 % 1021.0 hPa 0.0 l/m 4.2 km/h N 360 4 min 0 min 455 W/m 8.0 km/h
17.05.2022 09:21 18.2 C 83 % 1021.0 hPa 0.0 l/m 5.5 km/h N-NO 13 6 min 0 min 338 W/m 11.3 km/h
17.05.2022 09:15 17.9 C 84 % 1021.0 hPa 0.0 l/m 7.0 km/h N-NO 13 5 min 0 min 311 W/m 12.9 km/h
17.05.2022 09:10 17.8 C 83 % 1021.1 hPa 0.0 l/m 7.2 km/h N 5 5 min 0 min 322 W/m 14.5 km/h
17.05.2022 09:05 17.8 C 85 % 1021.0 hPa 0.0 l/m 5.6 km/h N 355 4 min 0 min 313 W/m 12.9 km/h
17.05.2022 09:01 17.7 C 83 % 1021.1 hPa 0.0 l/m 6.2 km/h N 5 6 min 0 min 301 W/m 12.9 km/h
17.05.2022 08:55 17.6 C 83 % 1021.0 hPa 0.0 l/m 7.8 km/h N-NO 19 5 min 0 min 396 W/m 14.5 km/h
17.05.2022 08:50 17.6 C 83 % 1021.0 hPa 0.0 l/m 5.9 km/h NW 314 5 min 0 min 402 W/m 12.9 km/h
17.05.2022 08:45 17.2 C 83 % 1021.0 hPa 0.0 l/m 5.9 km/h NW 322 5 min 0 min 351 W/m 11.3 km/h
17.05.2022 08:40 17.0 C 82 % 1020.9 hPa 0.0 l/m 4.5 km/h NW 321 5 min 0 min 308 W/m 9.7 km/h
17.05.2022 08:35 17.1 C 81 % 1020.9 hPa 0.0 l/m 5.0 km/h N-NW 346 5 min 0 min 399 W/m 12.9 km/h
17.05.2022 08:30 16.9 C 84 % 1020.9 hPa 0.0 l/m 2.4 km/h N-NW 346 5 min 0 min 380 W/m 4.8 km/h
17.05.2022 08:25 16.7 C 84 % 1020.9 hPa 0.0 l/m 3.2 km/h N-NW 336 5 min 0 min 361 W/m 8.0 km/h
17.05.2022 08:20 16.4 C 85 % 1020.9 hPa 0.0 l/m 4.2 km/h NW 323 5 min 0 min 330 W/m 8.0 km/h
17.05.2022 08:15 16.3 C 84 % 1020.8 hPa 0.0 l/m 4.8 km/h N 10 5 min 0 min 292 W/m 8.0 km/h
17.05.2022 08:10 16.2 C 84 % 1020.8 hPa 0.0 l/m 3.7 km/h N-NO 27 5 min 0 min 310 W/m 8.0 km/h
17.05.2022 08:05 16.2 C 84 % 1020.8 hPa 0.0 l/m 3.5 km/h NW 315 5 min 0 min 288 W/m 6.4 km/h
17.05.2022 08:00 15.9 C 84 % 1020.8 hPa 0.0 l/m 3.2 km/h N 11 5 min 0 min 278 W/m 6.4 km/h
17.05.2022 07:55 15.8 C 84 % 1020.8 hPa 0.0 l/m 2.0 km/h SO 142 5 min 0 min 281 W/m 6.4 km/h
17.05.2022 07:50 15.8 C 86 % 1020.8 hPa 0.0 l/m 1.6 km/h S 171 5 min 0 min 273 W/m 3.2 km/h
17.05.2022 07:45 15.6 C 86 % 1020.7 hPa 0.0 l/m 0.3 km/h S 171 5 min 0 min 257 W/m 1.6 km/h
17.05.2022 07:40 15.3 C 86 % 1020.7 hPa 0.0 l/m 0.7 km/h S 171 5 min 0 min 240 W/m 3.2 km/h
17.05.2022 07:35 15.2 C 88 % 1020.7 hPa 0.0 l/m 0.1 km/h S 171 5 min 0 min 222 W/m 1.6 km/h
17.05.2022 07:30 14.9 C 89 % 1020.7 hPa 0.0 l/m 1.0 km/h S 171 5 min 0 min 204 W/m 3.2 km/h
17.05.2022 07:25 14.6 C 90 % 1020.7 hPa 0.0 l/m 0.5 km/h S 171 5 min 0 min 186 W/m 3.2 km/h
17.05.2022 07:20 14.4 C 90 % 1020.7 hPa 0.0 l/m 0.8 km/h S 171 5 min 0 min 170 W/m 3.2 km/h
17.05.2022 07:15 14.2 C 91 % 1020.7 hPa 0.0 l/m 1.1 km/h S 171 5 min 0 min 154 W/m 3.2 km/h
17.05.2022 07:10 14.1 C 92 % 1020.6 hPa 0.0 l/m 2.1 km/h S 171 5 min 0 min 138 W/m 3.2 km/h
17.05.2022 07:05 13.9 C 93 % 1020.6 hPa 0.0 l/m 2.2 km/h S 171 5 min 0 min 123 W/m 6.4 km/h
17.05.2022 07:00 13.7 C 94 % 1020.6 hPa 0.0 l/m 0.0 km/h S 171 5 min 0 min 108 W/m 1.6 km/h
17.05.2022 06:55 13.5 C 94 % 1020.5 hPa 0.0 l/m 0.0 km/h S 171 5 min 0 min 95 W/m 0.0 km/h
17.05.2022 06:50 13.3 C 94 % 1020.5 hPa 0.0 l/m 0.0 km/h S 171 0 min 0 min 84 W/m 1.6 km/h
17.05.2022 06:45 13.2 C 94 % 1020.5 hPa 0.0 l/m 0.1 km/h S 171 0 min 0 min 74 W/m 1.6 km/h
17.05.2022 06:40 13.1 C 94 % 1020.5 hPa 0.0 l/m 0.1 km/h S 171 0 min 0 min 65 W/m 1.6 km/h
17.05.2022 06:36 12.9 C 94 % 1020.5 hPa 0.0 l/m 0.3 km/h S 171 0 min 0 min 56 W/m 1.6 km/h
17.05.2022 06:30 12.8 C 94 % 1020.4 hPa 0.0 l/m 0.2 km/h S 171 0 min 0 min 46 W/m 1.6 km/h
17.05.2022 06:25 12.8 C 94 % 1020.4 hPa 0.0 l/m 0.0 km/h S 171 0 min 0 min 37 W/m 0.0 km/h
17.05.2022 06:20 12.8 C 94 % 1020.4 hPa 0.0 l/m 0.0 km/h S 171 0 min 0 min 29 W/m 0.0 km/h
17.05.2022 06:15 12.8 C 94 % 1020.4 hPa 0.0 l/m 0.0 km/h S 171 0 min 0 min 20 W/m 0.0 km/h
17.05.2022 06:10 12.7 C 94 % 1020.4 hPa 0.0 l/m 0.0 km/h S 171 0 min 0 min 17 W/m 0.0 km/h
17.05.2022 06:05 12.7 C 94 % 1020.4 hPa 0.0 l/m 0.0 km/h S 171 0 min 0 min 14 W/m 0.0 km/h
17.05.2022 06:00 12.8 C 94 % 1020.4 hPa 0.0 l/m 0.5 km/h S 171 0 min 0 min 12 W/m 1.6 km/h
17.05.2022 05:55 12.7 C 94 % 1020.4 hPa 0.0 l/m 0.0 km/h S 171 0 min 0 min 9 W/m 1.6 km/h
17.05.2022 05:50 12.8 C 94 % 1020.4 hPa 0.0 l/m 0.0 km/h S 171 0 min 0 min 7 W/m 0.0 km/h
17.05.2022 05:45 12.8 C 94 % 1020.4 hPa 0.0 l/m 0.0 km/h N 0 0 min 0 min 4 W/m 0.0 km/h
17.05.2022 05:40 12.8 C 93 % 1020.4 hPa 0.0 l/m 0.0 km/h N 0 0 min 0 min 0 W/m 0.0 km/h
17.05.2022 05:35 12.9 C 94 % 1020.4 hPa 0.0 l/m 0.0 km/h N 0 0 min 0 min 0 W/m 0.0 km/h
17.05.2022 05:30 12.9 C 94 % 1020.4 hPa 0.0 l/m 0.0 km/h N 0 0 min 0 min 0 W/m 0.0 km/h
17.05.2022 05:25 13.0 C 93 % 1020.4 hPa 0.0 l/m 0.0 km/h S 180 0 min 0 min 0 W/m 1.6 km/h
17.05.2022 05:20 13.1 C 93 % 1020.3 hPa 0.0 l/m 0.0 km/h S 180 0 min 0 min 0 W/m 1.6 km/h
17.05.2022 05:15 13.1 C 93 % 1020.3 hPa 0.0 l/m 0.2 km/h S 171 0 min 0 min 0 W/m 1.6 km/h
17.05.2022 05:10 13.2 C 93 % 1020.3 hPa 0.0 l/m 0.0 km/h S 171 0 min 0 min 0 W/m 0.0 km/h
17.05.2022 05:05 13.2 C 93 % 1020.3 hPa 0.0 l/m 0.2 km/h S 171 0 min 0 min 0 W/m 1.6 km/h
17.05.2022 05:00 13.3 C 93 % 1020.2 hPa 0.0 l/m 0.5 km/h S 171 0 min 0 min 0 W/m 1.6 km/h
17.05.2022 04:55 13.3 C 92 % 1020.2 hPa 0.0 l/m 0.6 km/h S 171 0 min 0 min 0 W/m 1.6 km/h
17.05.2022 04:50 13.5 C 92 % 1020.2 hPa 0.0 l/m 0.0 km/h S 171 0 min 0 min 0 W/m 0.0 km/h
17.05.2022 04:45 13.6 C 92 % 1020.2 hPa 0.0 l/m 0.0 km/h S 171 0 min 0 min 0 W/m 0.0 km/h
17.05.2022 04:40 13.7 C 92 % 1020.1 hPa 0.0 l/m 0.0 km/h S 171 0 min 0 min 0 W/m 0.0 km/h
17.05.2022 04:35 13.8 C 92 % 1020.1 hPa 0.0 l/m 1.4 km/h S 171 0 min 0 min 0 W/m 3.2 km/h
17.05.2022 04:30 13.8 C 92 % 1020.1 hPa 0.0 l/m 0.9 km/h S 171 0 min 0 min 0 W/m 3.2 km/h
17.05.2022 04:25 13.8 C 92 % 1020.1 hPa 0.0 l/m 0.0 km/h S 171 0 min 0 min 0 W/m 0.0 km/h
17.05.2022 04:20 13.8 C 92 % 1020.1 hPa 0.0 l/m 0.0 km/h S 171 0 min 0 min 0 W/m 0.0 km/h
17.05.2022 04:15 13.7 C 92 % 1020.1 hPa 0.0 l/m 0.0 km/h S 171 0 min 0 min 0 W/m 0.0 km/h
17.05.2022 04:10 13.6 C 93 % 1020.0 hPa 0.0 l/m 0.0 km/h S 171 0 min 0 min 0 W/m 0.0 km/h
17.05.2022 04:05 13.6 C 93 % 1020.0 hPa 0.0 l/m 0.0 km/h S 171 0 min 0 min 0 W/m 0.0 km/h
17.05.2022 04:00 13.4 C 93 % 1020.0 hPa 0.0 l/m 0.0 km/h S 171 0 min 0 min 0 W/m 0.0 km/h
17.05.2022 03:55 13.4 C 92 % 1020.0 hPa 0.0 l/m 0.0 km/h S 171 0 min 0 min 0 W/m 0.0 km/h
17.05.2022 03:50 13.4 C 92 % 1020.1 hPa 0.0 l/m 0.0 km/h S 171 0 min 0 min 0 W/m 0.0 km/h
17.05.2022 03:45 13.6 C 92 % 1020.0 hPa 0.0 l/m 0.0 km/h S 171 0 min 0 min 0 W/m 0.0 km/h
17.05.2022 03:40 13.6 C 92 % 1020.1 hPa 0.0 l/m 0.0 km/h S 171 0 min 0 min 0 W/m 0.0 km/h
17.05.2022 03:35 13.6 C 92 % 1020.2 hPa 0.0 l/m 0.0 km/h S 171 0 min 0 min 0 W/m 0.0 km/h
17.05.2022 03:30 13.6 C 92 % 1020.2 hPa 0.0 l/m 0.0 km/h S 171 0 min 0 min 0 W/m 0.0 km/h
17.05.2022 03:25 13.7 C 92 % 1020.2 hPa 0.0 l/m 0.0 km/h S 171 0 min 0 min 0 W/m 1.6 km/h
17.05.2022 03:21 13.7 C 91 % 1020.1 hPa 0.0 l/m 0.0 km/h S 171 0 min 0 min 0 W/m 0.0 km/h
17.05.2022 03:15 13.7 C 91 % 1020.1 hPa 0.0 l/m 0.2 km/h S 171 0 min 0 min 0 W/m 1.6 km/h
17.05.2022 03:10 13.8 C 91 % 1020.1 hPa 0.0 l/m 0.0 km/h S 171 0 min 0 min 0 W/m 0.0 km/h
17.05.2022 03:05 13.8 C 90 % 1020.1 hPa 0.0 l/m 0.1 km/h S 171 0 min 0 min 0 W/m 1.6 km/h
17.05.2022 03:00 14.1 C 90 % 1020.2 hPa 0.0 l/m 1.1 km/h S 171 0 min 0 min 0 W/m 3.2 km/h
17.05.2022 02:55 14.1 C 90 % 1020.2 hPa 0.0 l/m 0.7 km/h S 171 0 min 0 min 0 W/m 1.6 km/h
17.05.2022 02:50 14.2 C 90 % 1020.1 hPa 0.0 l/m 1.4 km/h S 171 0 min 0 min 0 W/m 3.2 km/h
17.05.2022 02:45 14.4 C 89 % 1020.2 hPa 0.0 l/m 0.8 km/h S 171 0 min 0 min 0 W/m 1.6 km/h
17.05.2022 02:40 14.6 C 89 % 1020.2 hPa 0.0 l/m 0.9 km/h S 171 0 min 0 min 0 W/m 3.2 km/h
17.05.2022 02:35 14.7 C 88 % 1020.3 hPa 0.0 l/m 0.7 km/h S 171 0 min 0 min 0 W/m 3.2 km/h
17.05.2022 02:30 15.1 C 87 % 1020.3 hPa 0.0 l/m 0.6 km/h S 171 0 min 0 min 0 W/m 3.2 km/h
17.05.2022 02:25 15.2 C 87 % 1020.3 hPa 0.0 l/m 3.3 km/h S 171 0 min 0 min 0 W/m 6.4 km/h
17.05.2022 02:20 15.3 C 87 % 1020.2 hPa 0.0 l/m 0.5 km/h S 171 0 min 0 min 0 W/m 1.6 km/h
17.05.2022 02:15 15.4 C 87 % 1020.2 hPa 0.0 l/m 1.4 km/h S 171 0 min 0 min 0 W/m 6.4 km/h
17.05.2022 02:10 15.5 C 86 % 1020.3 hPa 0.0 l/m 2.3 km/h S 171 0 min 0 min 0 W/m 3.2 km/h
17.05.2022 02:05 15.6 C 86 % 1020.3 hPa 0.0 l/m 2.0 km/h S 171 0 min 0 min 0 W/m 6.4 km/h
17.05.2022 02:00 15.6 C 86 % 1020.3 hPa 0.0 l/m 3.2 km/h S 171 0 min 0 min 0 W/m 3.2 km/h
_ Min-Zeit 05:55 15:10 17:30 - 03:10 - - - - - 03:10
Minimum _ 12.7 C 44 % 1017.7 hPa - 0.0 km/h - - - - - 0.0 km/h
_ Max-Zeit 17:05 05:30 09:01 02:00 13:20 - - 09:01 02:00 13:25 13:20
Maximum _ 25.8 C 94 % 1021.1 hPa 0.0 l/m 13.0 km/h
N
- - 6 min 0 min 885 W/m 24.1 km/h
N-NO
Durchschnitt _ 19.1 C 70 % 1019.6 hPa #0.0 l/m 3.9 km/h N-NO - #0 min. #0 min. 0 W/m 8.3 km/h